Time;durP1;ratioP1;P1;durP2;ratioP2;P2;SDS_P1;SDS_P2;PMS_P1;PMS_P2;Temp;Humidity;BMP_temperature;BMP_pressure;BME280_temperature;BME280_humidity;BME280_pressure;Samples;Min_cycle;Max_cycle;Signal;HPM_P1;HPM_P2
2022/04/07 00:04:28;;;;;;;73.47;67.90;;;;;;;10.87;100.00;98794.78;2014997;71;32907;-77
2022/04/07 00:10:13;;;;;;;73.53;67.63;;;;;;;10.90;100.00;98759.41;2016745;71;32840;-73
2022/04/07 00:16:01;;;;;;;72.83;67.13;;;;;;;10.92;100.00;98772.36;2006150;71;33376;-74
2022/04/07 00:21:46;;;;;;;74.77;68.90;;;;;;;11.00;100.00;98740.11;1995410;71;32783;-74
2022/04/07 00:27:30;;;;;;;72.30;66.57;;;;;;;11.01;100.00;98733.41;1997289;71;32904;-79
2022/04/07 00:33:16;;;;;;;70.37;64.50;;;;;;;11.01;100.00;98716.17;1997829;71;32860;-76
2022/04/07 00:39:00;;;;;;;71.23;65.73;;;;;;;11.08;100.00;98707.30;2000347;71;33325;-78
2022/04/07 00:44:44;;;;;;;71.37;65.87;;;;;;;11.14;100.00;98686.48;2000260;71;32840;-76
2022/04/07 00:50:29;;;;;;;68.83;63.63;;;;;;;11.14;100.00;98673.98;2016991;71;33366;-77
2022/04/07 00:56:15;;;;;;;71.40;65.57;;;;;;;11.12;100.00;98669.35;2018621;70;32935;-74
2022/04/07 01:02:00;;;;;;;74.17;68.73;;;;;;;11.19;100.00;98669.59;2018493;71;33107;-78
2022/04/07 01:07:44;;;;;;;72.47;66.87;;;;;;;11.13;100.00;98665.40;2009760;70;32828;-78
2022/04/07 01:13:47;;;;;;;73.93;68.13;;;;;;;11.04;100.00;98712.70;2004228;71;32913;-79
2022/04/07 01:19:32;;;;;;;75.57;70.10;;;;;;;10.23;100.00;98699.83;2012907;71;32845;-74
2022/04/07 01:25:16;;;;;;;75.47;69.73;;;;;;;9.97;100.00;98699.94;1994382;71;32995;-79
2022/04/07 01:31:00;;;;;;;70.50;65.17;;;;;;;9.84;100.00;98685.16;1997168;71;32767;-79
2022/04/07 01:36:48;;;;;;;68.67;63.57;;;;;;;9.76;100.00;98667.17;2000794;71;32771;-77
2022/04/07 01:42:34;;;;;;;68.00;62.90;;;;;;;9.65;100.00;98652.89;2016715;71;32920;-75
2022/04/07 01:48:21;;;;;;;70.13;64.90;;;;;;;9.65;100.00;98636.83;2013029;71;32904;-78
2022/04/07 01:54:11;;;;;;;66.90;61.87;;;;;;;9.62;100.00;98651.36;2002125;71;32887;-75
2022/04/07 01:59:57;;;;;;;67.83;62.83;;;;;;;9.53;100.00;98629.22;2007843;71;33269;-78
2022/04/07 02:05:41;;;;;;;64.77;59.73;;;;;;;9.53;100.00;98618.95;2000554;71;32814;-80
2022/04/07 02:11:28;;;;;;;67.77;62.60;;;;;;;9.52;100.00;98610.39;1997213;71;32745;-85
2022/04/07 02:17:12;;;;;;;65.50;60.80;;;;;;;9.51;100.00;98626.77;2016637;71;32892;-74
2022/04/07 02:22:57;;;;;;;65.53;60.67;;;;;;;9.54;100.00;98612.25;2011853;71;33229;-74
2022/04/07 02:28:41;;;;;;;63.43;58.73;;;;;;;9.51;100.00;98608.77;1991598;71;32765;-78
2022/04/07 02:34:26;;;;;;;64.30;59.53;;;;;;;9.49;100.00;98614.41;2011810;70;32814;-75
2022/04/07 02:40:13;;;;;;;67.90;63.10;;;;;;;9.41;100.00;98623.58;2014733;71;33542;-78
2022/04/07 02:45:57;;;;;;;63.30;58.43;;;;;;;9.44;100.00;98607.66;2000092;70;33328;-75
2022/04/07 02:51:42;;;;;;;65.30;59.93;;;;;;;9.31;100.00;98610.08;2013102;71;33387;-76
2022/04/07 02:57:30;;;;;;;64.10;58.73;;;;;;;9.31;100.00;98592.89;2009972;71;32763;-74
2022/04/07 03:03:12;;;;;;;66.10;60.30;;;;;;;9.14;100.00;98590.99;2014890;71;32822;-75
2022/04/07 03:08:56;;;;;;;65.27;59.73;;;;;;;9.16;100.00;98605.87;1994976;71;33429;-78
2022/04/07 03:14:43;;;;;;;69.90;64.50;;;;;;;8.91;100.00;98566.62;2016761;71;33341;-82
2022/04/07 03:20:27;;;;;;;71.50;66.23;;;;;;;8.76;100.00;98568.54;2016820;71;32837;-74
2022/04/07 03:26:11;;;;;;;72.17;67.07;;;;;;;8.70;100.00;98556.82;2004648;70;33236;-78
2022/04/07 03:31:55;;;;;;;69.43;64.67;;;;;;;8.67;100.00;98526.48;2010087;71;33309;-75
2022/04/07 03:37:43;;;;;;;68.70;64.20;;;;;;;8.66;100.00;98513.78;2004540;71;32846;-77
2022/04/07 03:43:31;;;;;;;69.23;64.73;;;;;;;8.62;100.00;98496.78;2000660;71;32913;-83
2022/04/07 03:49:15;;;;;;;67.40;62.97;;;;;;;8.60;100.00;98479.12;2016807;71;32878;-74
2022/04/07 03:55:03;;;;;;;70.67;66.03;;;;;;;8.54;100.00;98471.34;2000541;71;32987;-81
2022/04/07 04:00:49;;;;;;;70.20;65.47;;;;;;;8.44;100.00;98448.98;1988695;71;39604;-74
2022/04/07 04:06:35;;;;;;;68.60;63.93;;;;;;;8.39;100.00;98427.03;2016993;71;32845;-76
2022/04/07 04:12:19;;;;;;;68.93;64.23;;;;;;;8.38;100.00;98432.91;1997043;71;32812;-77
2022/04/07 04:18:04;;;;;;;69.07;64.37;;;;;;;8.35;100.00;98435.74;2004006;71;33385;-77
2022/04/07 04:23:49;;;;;;;71.73;66.87;;;;;;;8.37;100.00;98434.05;2011844;71;32832;-77
2022/04/07 04:29:33;;;;;;;69.70;64.73;;;;;;;8.37;100.00;98429.89;2011500;71;32848;-75
2022/04/07 04:35:17;;;;;;;70.57;65.67;;;;;;;8.36;100.00;98428.27;2003870;71;32827;-74
2022/04/07 04:41:02;;;;;;;70.73;65.80;;;;;;;8.45;100.00;98420.19;2014780;71;32817;-75
2022/04/07 04:46:46;;;;;;;70.70;65.67;;;;;;;8.47;100.00;98419.27;2012743;71;32938;-73
2022/04/07 04:52:30;;;;;;;66.33;61.30;;;;;;;8.31;100.00;98411.84;1997132;71;32775;-76
2022/04/07 04:58:16;;;;;;;71.40;66.43;;;;;;;8.32;100.00;98427.30;2014914;71;32827;-75
2022/04/07 05:04:01;;;;;;;70.00;65.27;;;;;;;8.22;100.00;98425.09;2018768;71;32847;-78
2022/04/07 05:09:45;;;;;;;68.57;63.73;;;;;;;8.18;100.00;98444.86;1997182;71;32837;-74
2022/04/07 05:15:30;;;;;;;68.23;63.33;;;;;;;8.27;100.00;98455.09;1995330;71;32756;-78
2022/04/07 05:21:15;;;;;;;68.77;63.17;;;;;;;8.22;100.00;98455.51;2011569;71;32754;-75
2022/04/07 05:26:59;;;;;;;69.83;64.37;;;;;;;8.22;100.00;98456.08;1997113;71;33310;-77
2022/04/07 05:32:43;;;;;;;71.00;65.93;;;;;;;8.20;100.00;98451.45;2004803;70;32835;-74
2022/04/07 05:38:28;;;;;;;67.17;62.33;;;;;;;8.19;100.00;98458.12;2002747;71;32954;-74
2022/04/07 05:44:12;;;;;;;71.23;66.03;;;;;;;8.27;100.00;98452.33;2004565;71;32891;-75
2022/04/07 05:49:57;;;;;;;69.10;64.00;;;;;;;8.31;100.00;98454.70;2016669;70;32848;-78
2022/04/07 05:55:41;;;;;;;70.03;65.20;;;;;;;8.39;100.00;98446.39;1993220;71;33249;-78
2022/04/07 06:01:25;;;;;;;70.63;66.07;;;;;;;8.42;100.00;98461.53;2016664;71;32897;-73
2022/04/07 06:07:12;;;;;;;66.37;61.87;;;;;;;8.42;100.00;98476.18;2009426;71;32883;-78
2022/04/07 06:12:56;;;;;;;65.70;60.90;;;;;;;8.50;100.00;98473.95;2013373;71;32819;-76
2022/04/07 06:18:41;;;;;;;65.47;60.73;;;;;;;8.56;100.00;98485.07;2018362;71;32884;-78
2022/04/07 06:24:25;;;;;;;65.70;60.90;;;;;;;8.70;100.00;98500.09;1998929;71;32767;-76
2022/04/07 06:30:12;;;;;;;67.67;63.00;;;;;;;8.72;100.00;98509.45;2016920;71;32821;-74
2022/04/07 06:35:56;;;;;;;71.37;66.07;;;;;;;8.76;100.00;98510.42;2009475;71;33329;-75
2022/04/07 06:41:40;;;;;;;66.93;62.33;;;;;;;8.78;100.00;98510.89;2005844;71;33440;-77
2022/04/07 06:47:25;;;;;;;65.37;60.97;;;;;;;8.77;100.00;98520.36;2013811;71;33199;-77
2022/04/07 06:53:11;;;;;;;67.23;62.60;;;;;;;8.80;100.00;98516.92;2016583;71;33384;-75
2022/04/07 06:58:56;;;;;;;65.53;61.00;;;;;;;8.88;100.00;98514.13;2014768;71;32861;-76
2022/04/07 07:04:40;;;;;;;63.10;58.70;;;;;;;8.97;100.00;98511.33;2011764;71;32806;-75
2022/04/07 07:10:28;;;;;;;62.43;58.27;;;;;;;9.06;100.00;98516.26;2009203;71;32988;-74
2022/04/07 07:16:12;;;;;;;59.23;55.60;;;;;;;9.17;100.00;98516.69;2013382;71;32918;-74
2022/04/07 07:21:57;;;;;;;58.37;54.00;;;;;;;9.35;100.00;98513.52;1991429;71;32823;-77
2022/04/07 07:27:42;;;;;;;55.27;51.53;;;;;;;9.47;100.00;98521.91;2002569;71;33234;-75
2022/04/07 07:33:27;;;;;;;53.27;49.63;;;;;;;9.40;100.00;98524.98;2005810;71;32831;-75
2022/04/07 07:39:11;;;;;;;53.37;49.70;;;;;;;9.56;100.00;98528.22;2005742;71;32825;-74
2022/04/07 07:44:56;;;;;;;49.87;46.77;;;;;;;9.79;100.00;98530.13;2014855;71;32938;-73
2022/04/07 07:50:42;;;;;;;53.13;49.63;;;;;;;9.92;100.00;98533.78;2014905;71;33310;-76
2022/04/07 07:56:26;;;;;;;45.07;42.30;;;;;;;10.00;100.00;98528.17;1993467;71;32909;-79
2022/04/07 08:02:11;;;;;;;46.17;43.30;;;;;;;9.94;100.00;98550.30;1994807;71;32904;-75
2022/04/07 08:07:55;;;;;;;42.27;39.57;;;;;;;10.08;100.00;98537.56;2005650;71;33353;-74
2022/04/07 08:13:39;;;;;;;37.23;34.73;;;;;;;10.23;100.00;98534.20;2006079;70;32815;-73
2022/04/07 08:19:24;;;;;;;36.47;34.07;;;;;;;10.32;100.00;98545.22;2004376;71;32834;-74
2022/04/07 08:25:09;;;;;;;28.00;26.23;;;;;;;10.71;100.00;98561.92;2006558;71;32750;-76
2022/04/07 08:30:55;;;;;;;25.90;24.00;;;;;;;10.55;100.00;98568.69;2002346;71;32970;-84
2022/04/07 08:36:41;;;;;;;25.67;23.57;;;;;;;10.66;100.00;98551.02;2001106;71;33235;-75
2022/04/07 08:42:26;;;;;;;23.93;22.43;;;;;;;11.41;100.00;98566.37;2001987;71;32834;-76
2022/04/07 08:48:13;;;;;;;24.53;23.03;;;;;;;10.92;100.00;98578.77;2008146;71;32841;-73
2022/04/07 08:53:58;;;;;;;23.30;21.40;;;;;;;10.80;100.00;98577.34;2010994;71;32836;-75
2022/04/07 08:59:43;;;;;;;22.47;20.83;;;;;;;10.90;100.00;98594.98;2009415;71;32836;-74
2022/04/07 09:05:29;;;;;;;20.77;19.37;;;;;;;11.14;100.00;98604.52;2000927;71;33280;-75
2022/04/07 09:11:13;;;;;;;21.33;19.57;;;;;;;11.16;100.00;98608.59;2007758;71;33340;-74
2022/04/07 09:16:59;;;;;;;22.17;20.50;;;;;;;11.53;100.00;98606.68;2011243;71;33431;-73
2022/04/07 09:22:45;;;;;;;20.07;18.47;;;;;;;11.31;100.00;98610.70;2018593;71;33337;-74
2022/04/07 09:28:32;;;;;;;17.80;16.40;;;;;;;11.61;100.00;98619.66;2009938;71;32882;-74
2022/04/07 09:34:18;;;;;;;17.20;16.13;;;;;;;11.45;100.00;98624.85;2006292;71;32825;-71
2022/04/07 09:40:19;;;;;;;17.57;16.37;;;;;;;11.53;100.00;98637.83;2009701;71;32789;-70
2022/04/07 09:46:12;;;;;;;15.60;14.57;;;;;;;11.96;100.00;98647.05;2013017;71;32859;-71
2022/04/07 09:52:15;;;;;;;16.87;15.73;;;;;;;11.27;100.00;98671.47;2013471;71;32860;-71
2022/04/07 09:58:03;;;;;;;19.17;17.97;;;;;;;11.32;100.00;98685.16;2012101;71;33318;-72
2022/04/07 10:03:49;;;;;;;15.30;13.93;;;;;;;11.47;100.00;98706.73;2009363;71;32915;-70
2022/04/07 10:09:35;;;;;;;17.93;16.50;;;;;;;11.57;100.00;98698.53;2018331;71;32841;-70
2022/04/07 10:15:22;;;;;;;15.07;13.77;;;;;;;11.84;100.00;98701.53;2014960;71;32991;-72
2022/04/07 10:21:09;;;;;;;14.53;13.33;;;;;;;12.24;100.00;98702.22;2009441;71;32849;-69
2022/04/07 10:27:03;;;;;;;13.60;12.57;;;;;;;12.10;100.00;98717.08;2009711;71;33405;-68
2022/04/07 10:32:50;;;;;;;13.60;12.70;;;;;;;12.29;100.00;98727.86;2008100;71;32865;-67
2022/04/07 10:38:51;;;;;;;13.43;12.33;;;;;;;12.53;100.00;98735.98;2005914;71;33325;-67
2022/04/07 10:45:10;;;;;;;12.67;11.80;;;;;;;12.25;100.00;98740.03;2011314;71;32948;-71
2022/04/07 10:51:00;;;;;;;13.47;12.27;;;;;;;12.78;100.00;98743.95;1998632;71;32828;-70
2022/04/07 10:56:50;;;;;;;12.80;11.73;;;;;;;12.57;100.00;98768.92;1980037;72;32948;-71
2022/04/07 11:02:38;;;;;;;12.00;11.30;;;;;;;12.68;100.00;98766.70;2005734;71;32880;-70
2022/04/07 11:08:23;;;;;;;13.77;12.73;;;;;;;12.67;100.00;98784.56;2014601;71;32938;-71
2022/04/07 11:14:09;;;;;;;11.83;11.13;;;;;;;12.74;100.00;98777.03;1995315;71;33397;-69
2022/04/07 11:20:02;;;;;;;12.50;11.40;;;;;;;12.71;100.00;98777.13;1991339;71;32767;-70
2022/04/07 11:26:13;;;;;;;12.47;11.57;;;;;;;12.74;100.00;98800.71;1998745;71;32970;-69
2022/04/07 11:32:13;;;;;;;15.03;13.00;;;;;;;12.65;100.00;98810.58;2018392;71;32911;-71
2022/04/07 11:38:04;;;;;;;11.90;11.13;;;;;;;12.79;100.00;98811.63;1998787;71;32964;-72
2022/04/07 11:43:50;;;;;;;12.33;11.43;;;;;;;12.33;100.00;98829.56;2009501;71;32899;-71
2022/04/07 11:49:42;;;;;;;12.00;11.20;;;;;;;12.38;100.00;98825.17;1998542;71;32894;-69
2022/04/07 11:55:29;;;;;;;11.33;10.50;;;;;;;12.55;100.00;98847.80;1999682;71;32824;-73
2022/04/07 12:01:16;;;;;;;12.13;11.43;;;;;;;12.72;100.00;98833.08;2007256;71;32870;-71
2022/04/07 12:07:04;;;;;;;11.70;11.00;;;;;;;13.13;100.00;98834.02;2006113;71;32832;-72
2022/04/07 12:12:49;;;;;;;11.97;11.27;;;;;;;13.16;100.00;98841.67;2016855;71;32834;-72
2022/04/07 12:18:33;;;;;;;11.97;11.27;;;;;;;13.30;100.00;98849.08;1991512;71;32758;-73
2022/04/07 12:24:18;;;;;;;13.20;12.23;;;;;;;13.31;100.00;98833.95;2006214;71;32836;-73
2022/04/07 12:30:07;;;;;;;13.00;12.30;;;;;;;13.33;100.00;98840.58;2005565;71;32965;-72
2022/04/07 12:35:58;;;;;;;11.50;10.90;;;;;;;13.19;100.00;98862.68;2007687;71;33339;-70
2022/04/07 12:41:44;;;;;;;12.30;11.50;;;;;;;13.33;100.00;98865.09;2004108;71;32875;-72
2022/04/07 12:47:32;;;;;;;11.43;10.37;;;;;;;13.47;100.00;98852.98;2000216;71;32826;-72
2022/04/07 12:53:30;;;;;;;11.80;11.10;;;;;;;13.01;100.00;98888.32;2006387;71;32802;-71
2022/04/07 12:59:16;;;;;;;11.40;10.80;;;;;;;12.89;100.00;98893.32;2016467;71;32989;-73
2022/04/07 13:05:00;;;;;;;12.43;11.63;;;;;;;13.07;100.00;98914.80;2016772;71;32841;-74
2022/04/07 13:10:44;;;;;;;12.23;11.33;;;;;;;13.65;100.00;98931.59;2005592;71;33232;-76
2022/04/07 13:16:29;;;;;;;11.83;11.23;;;;;;;13.83;100.00;98922.37;2018463;71;32893;-74
2022/04/07 13:22:14;;;;;;;12.90;11.63;;;;;;;13.85;100.00;98947.95;2006376;71;33314;-78
2022/04/07 13:27:59;;;;;;;12.30;11.50;;;;;;;13.92;100.00;98947.58;2004472;71;32764;-76
2022/04/07 13:33:43;;;;;;;11.87;11.07;;;;;;;14.13;100.00;98963.55;2009448;71;32915;-75
2022/04/07 13:39:27;;;;;;;11.93;11.13;;;;;;;13.56;100.00;98953.27;2006059;71;32820;-75
2022/04/07 13:45:12;;;;;;;11.57;10.93;;;;;;;13.49;100.00;98978.94;2016800;71;32823;-74
2022/04/07 13:50:56;;;;;;;12.07;11.30;;;;;;;13.59;100.00;98999.39;2007587;71;33427;-74
2022/04/07 13:56:40;;;;;;;11.30;10.77;;;;;;;13.43;100.00;98988.72;2018327;71;32814;-72
2022/04/07 14:02:25;;;;;;;11.70;10.90;;;;;;;13.12;100.00;99005.20;2009754;71;33288;-72
2022/04/07 14:08:09;;;;;;;11.37;10.67;;;;;;;12.98;100.00;99003.28;2018308;71;32824;-74
2022/04/07 14:13:53;;;;;;;11.47;10.73;;;;;;;12.97;100.00;99012.22;2011859;71;33231;-75
2022/04/07 14:19:37;;;;;;;11.47;10.87;;;;;;;13.07;100.00;99019.32;2002133;71;32972;-75
2022/04/07 14:25:23;;;;;;;11.10;10.40;;;;;;;12.99;100.00;99030.81;1998998;71;32805;-77
2022/04/07 14:31:09;;;;;;;11.90;11.20;;;;;;;12.85;100.00;99047.03;1998491;71;32871;-76
2022/04/07 14:36:54;;;;;;;12.40;11.40;;;;;;;12.94;100.00;99044.96;2011258;71;32889;-72
2022/04/07 14:42:38;;;;;;;12.03;11.23;;;;;;;13.00;100.00;99042.78;2002197;71;32948;-74
2022/04/07 14:48:26;;;;;;;11.60;10.87;;;;;;;13.48;100.00;99058.18;2013153;71;32954;-78
2022/04/07 14:54:10;;;;;;;11.33;10.70;;;;;;;13.08;100.00;99075.31;2003779;71;32875;-73
2022/04/07 14:59:56;;;;;;;12.10;11.30;;;;;;;12.61;100.00;99093.73;2016725;71;32982;-81
2022/04/07 15:05:41;;;;;;;12.07;11.30;;;;;;;13.25;100.00;99102.20;2011754;71;32823;-72
2022/04/07 15:11:26;;;;;;;13.20;12.50;;;;;;;13.26;100.00;99094.90;2013218;71;33289;-75
2022/04/07 15:17:11;;;;;;;12.30;11.40;;;;;;;13.08;100.00;99100.39;1999995;71;32967;-74
2022/04/07 15:22:56;;;;;;;12.13;11.20;;;;;;;13.25;100.00;99121.14;2015127;70;33285;-74
2022/04/07 15:28:43;;;;;;;11.50;10.80;;;;;;;13.10;100.00;99124.54;2015003;71;32940;-72
2022/04/07 15:34:27;;;;;;;11.20;10.60;;;;;;;12.83;100.00;99141.30;2006164;71;32771;-75
2022/04/07 15:40:13;;;;;;;11.53;11.03;;;;;;;12.87;100.00;99151.18;2000809;71;32870;-71
2022/04/07 15:45:57;;;;;;;12.17;11.47;;;;;;;13.32;100.00;99135.33;2015007;71;33252;-79
2022/04/07 15:51:42;;;;;;;11.73;11.07;;;;;;;12.84;100.00;99181.09;2015170;71;32889;-71
2022/04/07 15:57:26;;;;;;;11.80;10.90;;;;;;;13.07;100.00;99169.83;2004134;71;33305;-77
2022/04/07 16:03:11;;;;;;;11.53;10.57;;;;;;;12.78;100.00;99186.90;2015206;71;33428;-72
2022/04/07 16:08:55;;;;;;;12.27;11.37;;;;;;;12.56;100.00;99192.80;2000273;71;32844;-74
2022/04/07 16:14:40;;;;;;;11.63;10.73;;;;;;;12.82;100.00;99205.72;2015173;71;32896;-81
2022/04/07 16:20:24;;;;;;;11.97;11.03;;;;;;;12.89;100.00;99226.88;1995122;71;32751;-74
2022/04/07 16:26:09;;;;;;;11.57;10.93;;;;;;;12.57;100.00;99254.32;2014794;71;32903;-78
2022/04/07 16:31:53;;;;;;;11.27;10.47;;;;;;;12.27;100.00;99272.17;2001977;71;32822;-76
2022/04/07 16:37:39;;;;;;;11.73;11.10;;;;;;;11.99;100.00;99310.74;1991339;71;32802;-78
2022/04/07 16:43:25;;;;;;;12.23;11.40;;;;;;;12.33;100.00;99304.23;2000411;71;32854;-77
2022/04/07 16:49:15;;;;;;;12.20;11.53;;;;;;;12.00;100.00;99319.34;2000181;70;32857;-84
2022/04/07 16:54:59;;;;;;;11.87;11.20;;;;;;;11.91;100.00;99331.06;2015065;71;32912;-80
2022/04/07 17:00:42;;;;;;;11.70;10.93;;;;;;;11.83;100.00;99341.07;2002330;71;32817;-81
2022/04/07 17:06:27;;;;;;;11.53;11.03;;;;;;;11.88;100.00;99364.30;2009345;71;33362;-76
2022/04/07 17:12:14;;;;;;;12.17;11.10;;;;;;;11.82;100.00;99379.77;2018314;71;33425;-73
2022/04/07 17:17:58;;;;;;;11.77;10.97;;;;;;;11.77;100.00;99392.45;2014568;71;33311;-72
2022/04/07 17:23:42;;;;;;;11.57;10.80;;;;;;;11.72;100.00;99415.46;2016717;71;32858;-71
2022/04/07 17:29:28;;;;;;;10.87;10.37;;;;;;;12.04;100.00;99437.76;2003305;70;32883;-72
2022/04/07 17:35:12;;;;;;;11.30;10.53;;;;;;;11.85;100.00;99457.59;2011269;71;33309;-71
2022/04/07 17:40:56;;;;;;;10.77;10.37;;;;;;;11.57;100.00;99465.39;2014765;71;32821;-72
2022/04/07 17:46:41;;;;;;;11.00;10.40;;;;;;;11.47;100.00;99469.07;2009344;71;33314;-72
2022/04/07 17:52:28;;;;;;;11.20;10.57;;;;;;;11.52;100.00;99485.00;2009513;71;32796;-71
2022/04/07 17:58:12;;;;;;;11.50;10.90;;;;;;;11.43;100.00;99503.63;2009434;71;32749;-72
2022/04/07 18:03:56;;;;;;;11.00;10.40;;;;;;;11.19;100.00;99506.02;2012984;71;32825;-70
2022/04/07 18:09:41;;;;;;;11.57;10.97;;;;;;;11.22;100.00;99527.03;2009444;71;32809;-72
2022/04/07 18:15:25;;;;;;;10.27;9.80;;;;;;;11.09;100.00;99537.69;2004352;71;32871;-72
2022/04/07 18:21:10;;;;;;;11.13;10.63;;;;;;;10.95;100.00;99556.45;2009215;71;33456;-70
2022/04/07 18:26:54;;;;;;;11.20;10.60;;;;;;;10.86;100.00;99564.73;1994872;71;32747;-70
2022/04/07 18:32:39;;;;;;;10.73;10.20;;;;;;;10.77;100.00;99583.30;2000371;71;32865;-72
2022/04/07 18:38:24;;;;;;;11.00;10.27;;;;;;;10.61;100.00;99596.50;2006530;71;32844;-77
2022/04/07 18:44:08;;;;;;;11.37;10.67;;;;;;;10.63;100.00;99622.80;2009647;71;32863;-67
2022/04/07 18:49:55;;;;;;;11.27;10.77;;;;;;;10.65;100.00;99644.16;2011167;71;33330;-69
2022/04/07 18:55:39;;;;;;;11.30;10.70;;;;;;;10.48;100.00;99653.73;1994652;71;33372;-68
2022/04/07 19:01:25;;;;;;;11.63;11.00;;;;;;;10.54;100.00;99678.01;2018445;71;33400;-67
2022/04/07 19:07:11;;;;;;;11.07;10.27;;;;;;;10.46;100.00;99684.56;2013003;71;33002;-67
2022/04/07 19:12:57;;;;;;;11.47;10.77;;;;;;;10.34;100.00;99694.02;2011073;71;32878;-69
2022/04/07 19:18:42;;;;;;;11.40;10.67;;;;;;;10.39;100.00;99727.78;2004238;71;33325;-68
2022/04/07 19:24:27;;;;;;;11.07;10.47;;;;;;;10.44;100.00;99762.34;2010892;71;32867;-69
2022/04/07 19:30:14;;;;;;;11.63;11.03;;;;;;;10.45;100.00;99783.42;2014396;71;32955;-69
2022/04/07 19:35:58;;;;;;;11.80;11.10;;;;;;;10.42;100.00;99804.88;2014801;71;32872;-66
2022/04/07 19:41:47;;;;;;;11.77;11.13;;;;;;;10.36;100.00;99825.52;2016228;71;32820;-68
2022/04/07 19:47:32;;;;;;;11.80;11.30;;;;;;;10.22;100.00;99838.04;2003824;71;32917;-70
2022/04/07 19:53:16;;;;;;;11.63;11.13;;;;;;;10.13;100.00;99862.04;2007837;71;32884;-71
2022/04/07 19:59:01;;;;;;;11.40;10.90;;;;;;;10.14;100.00;99872.58;2009367;71;32836;-71
2022/04/07 20:04:48;;;;;;;11.47;10.97;;;;;;;10.12;100.00;99885.36;2011609;71;33366;-72
2022/04/07 20:10:32;;;;;;;12.30;11.67;;;;;;;10.00;100.00;99888.63;1994926;71;32782;-68
2022/04/07 20:16:17;;;;;;;12.20;11.70;;;;;;;9.93;100.00;99904.83;2016318;71;32823;-73
2022/04/07 20:22:01;;;;;;;11.53;11.00;;;;;;;9.85;100.00;99926.89;2011646;71;33224;-72
2022/04/07 20:27:45;;;;;;;11.73;11.13;;;;;;;9.85;100.00;99939.37;1998822;71;32753;-68
2022/04/07 20:33:29;;;;;;;11.90;11.40;;;;;;;9.80;100.00;99936.11;2000625;71;33252;-66
2022/04/07 20:39:15;;;;;;;11.47;10.97;;;;;;;9.58;100.00;99953.96;2002037;71;32814;-67
2022/04/07 20:44:59;;;;;;;12.00;11.40;;;;;;;9.43;100.00;99977.17;2001964;71;32817;-70
2022/04/07 20:50:44;;;;;;;12.27;11.77;;;;;;;9.28;100.00;99983.50;2014701;71;33299;-71
2022/04/07 20:56:33;;;;;;;12.17;11.57;;;;;;;9.14;100.00;99991.16;1998614;71;32752;-68
2022/04/07 21:02:20;;;;;;;11.60;11.10;;;;;;;8.98;100.00;99997.19;2000113;71;32923;-68
2022/04/07 21:08:05;;;;;;;11.67;11.10;;;;;;;8.83;100.00;100016.73;2002420;71;33236;-69
2022/04/07 21:13:51;;;;;;;12.53;11.70;;;;;;;8.77;100.00;100028.41;2000562;71;33405;-67
2022/04/07 21:19:37;;;;;;;11.90;11.40;;;;;;;8.59;100.00;100034.16;1991340;71;32801;-69
2022/04/07 21:25:21;;;;;;;12.70;11.80;;;;;;;8.30;100.00;100037.45;2009063;71;32978;-71
2022/04/07 21:31:07;;;;;;;12.87;12.27;;;;;;;7.92;100.00;100039.11;2012744;71;32957;-66
2022/04/07 21:36:51;;;;;;;12.30;11.57;;;;;;;7.89;100.00;100041.08;2016534;71;32828;-67
2022/04/07 21:42:35;;;;;;;11.57;11.10;;;;;;;7.75;100.00;100058.03;2014808;71;32834;-67
2022/04/07 21:48:20;;;;;;;11.90;11.30;;;;;;;7.74;100.00;100055.02;2013257;71;32818;-71
2022/04/07 21:54:04;;;;;;;13.07;12.37;;;;;;;7.47;100.00;100059.58;2008852;71;32833;-71
2022/04/07 21:59:48;;;;;;;12.80;12.20;;;;;;;7.41;100.00;100065.40;2007554;71;32840;-67
2022/04/07 22:05:32;;;;;;;13.97;13.07;;;;;;;7.21;100.00;100069.91;2016670;71;32870;-67
2022/04/07 22:11:24;;;;;;;14.63;13.83;;;;;;;7.21;100.00;100075.98;2006063;71;32790;-69
2022/04/07 22:17:09;;;;;;;13.90;13.23;;;;;;;7.10;100.00;100078.53;1994488;71;32823;-69
2022/04/07 22:22:53;;;;;;;14.63;13.67;;;;;;;6.96;100.00;100089.33;2000496;71;32866;-68
2022/04/07 22:28:40;;;;;;;15.97;15.07;;;;;;;6.90;100.00;100086.84;2014695;71;32997;-68
2022/04/07 22:34:24;;;;;;;14.77;13.97;;;;;;;6.79;100.00;100091.58;2014741;70;33356;-70
2022/04/07 22:40:12;;;;;;;14.63;13.90;;;;;;;6.85;100.00;100089.06;2002137;71;32774;-71
2022/04/07 22:45:57;;;;;;;15.90;15.00;;;;;;;6.84;100.00;100099.85;2009477;71;32845;-68
2022/04/07 22:51:48;;;;;;;18.10;17.13;;;;;;;6.65;100.00;100100.14;1932451;74;33469;-68
2022/04/07 22:57:34;;;;;;;17.93;16.93;;;;;;;6.62;100.00;100103.47;2014707;71;32911;-70
2022/04/07 23:03:21;;;;;;;18.70;17.80;;;;;;;6.58;100.00;100094.09;2012890;71;33615;-71
2022/04/07 23:09:06;;;;;;;19.70;18.50;;;;;;;6.44;100.00;100117.27;2006044;71;33351;-67
2022/04/07 23:14:50;;;;;;;20.77;19.67;;;;;;;6.42;100.00;100109.00;2003858;71;32906;-67
2022/04/07 23:20:34;;;;;;;21.33;19.97;;;;;;;6.37;100.00;100120.86;2002047;71;33320;-67
2022/04/07 23:26:20;;;;;;;21.27;19.87;;;;;;;6.30;100.00;100124.42;2011607;71;33229;-70
2022/04/07 23:32:08;;;;;;;21.83;20.53;;;;;;;6.22;100.00;100125.80;2005346;71;32901;-69
2022/04/07 23:37:53;;;;;;;21.90;20.70;;;;;;;6.23;100.00;100119.19;2003619;71;32843;-70
2022/04/07 23:43:37;;;;;;;23.03;21.43;;;;;;;6.14;100.00;100126.89;2014848;71;33365;-70
2022/04/07 23:49:21;;;;;;;26.37;24.67;;;;;;;6.15;100.00;100128.01;2007539;70;33457;-70
2022/04/07 23:55:08;;;;;;;27.70;25.90;;;;;;;6.01;100.00;100139.83;1995135;71;32849;-67
